Island Princess — ZCDG4 — position and weather

sailwx.info

Track history (hours):
 
Tides and Currents Weather Stations Pressure Air Temp Water Temp Dewpoint Dewpoint Depression Visibility Wind Speed Wind Dir Waves Ship Positions

Island Princess

Operator: Princess Cruises

Last reported at 2020-Jul-02 15:56 UTC. Time now 2020-Jul-02 16:30 UTC.
Position N 14°34' E 120°56'.

Type: Passenger vessel. MMSI: 310384000.

Date/timePositionNaut miles runAvg speedWind from/ knotsBaromVisibWave heightAir tempDewpointWater temp
2020-Jul-02 15:56N 14°34' E 120°56'0 0.0
2020-Jul-02 14:05N 14°34' E 120°56'0 0.0
2020-Jul-02 11:29N 14°34' E 120°56'0 0.0
2020-Jul-02 10:59N 14°34' E 120°56'0 0.0
2020-Jul-02 10:29N 14°34' E 120°56'0 0.0
2020-Jul-02 09:29N 14°34' E 120°56'0 0.0
2020-Jul-02 08:59N 14°34' E 120°56'0 0.0
2020-Jul-02 06:29N 14°34' E 120°56'0 0.0
2020-Jul-02 03:59N 14°34' E 120°56'0 0.0
2020-Jul-02 03:29N 14°34' E 120°56'0 0.0
2020-Jul-02 02:29N 14°34' E 120°56'0 0.0
2020-Jul-02 01:26N 14°34' E 120°56'0 0.0
2020-Jul-01 23:29N 14°34' E 120°56'0 0.0
2020-Jul-01 18:29N 14°34' E 120°56'0 0.0
2020-Jul-01 15:56N 14°34' E 120°56'0 0.0
2020-Jul-01 13:29N 14°34' E 120°56'0 0.0
2020-Jul-01 05:29N 14°34' E 120°56'0 0.0
2020-Jul-01 03:59N 14°34' E 120°56'0 0.0
2020-Jul-01 02:29N 14°34' E 120°56'0 0.0
2020-Jun-30 23:59N 14°34' E 120°56'4 4.3
2020-Jun-30 23:00N 14°30' E 120°54'4 2.8 140 / 101010.0 5.4 27.524.131.0
2020-Jun-30 21:29N 14°34' E 120°56'0 0.0
2020-Jun-30 18:29N 14°34' E 120°56'0 0.0
2020-Jun-30 17:59N 14°34' E 120°56'0 0.0
2020-Jun-30 17:26N 14°34' E 120°56'0 0.0
2020-Jun-30 16:29N 14°34' E 120°56'0 0.0
2020-Jun-30 15:29N 14°34' E 120°56'0 0.0
2020-Jun-30 14:29N 14°34' E 120°56'0 0.0
2020-Jun-30 13:29N 14°34' E 120°56'0 0.0
2020-Jun-30 11:53N 14°34' E 120°56'0 0.0
2020-Jun-30 07:26N 14°34' E 120°56'0 0.0
2020-Jun-30 06:29N 14°34' E 120°56'0 0.0
2020-Jun-30 03:29N 14°34' E 120°56'0 0.0
2020-Jun-30 02:26N 14°34' E 120°56'0 0.0
2020-Jun-30 00:29N 14°34' E 120°56'0 0.0
2020-Jun-29 22:56N 14°34' E 120°56'0 0.1
2020-Jun-29 22:05N 14°34' E 120°56'0 0.0
2020-Jun-29 16:29N 14°34' E 120°56'0 0.0
2020-Jun-29 15:59N 14°34' E 120°56'0 0.0
2020-Jun-29 13:56N 14°34' E 120°56'0 0.0
2020-Jun-29 13:29N 14°34' E 120°56'4 1.7
2020-Jun-29 11:00N 14°30' E 120°54'4 1.1 270 / 101008.9 5.4 29.024.931.0
2020-Jun-29 06:59N 14°34' E 120°56'0 0.0
2020-Jun-29 05:29N 14°34' E 120°56'0 0.0
2020-Jun-29 04:29N 14°34' E 120°56'0 0.0
2020-Jun-29 00:20N 14°34' E 120°56'0 0.0
2020-Jun-28 23:14N 14°34' E 120°56'0 0.0
2020-Jun-28 21:56N 14°34' E 120°56'0 0.0
2020-Jun-28 21:29N 14°34' E 120°56'0 0.0
2020-Jun-28 18:29N 14°34' E 120°56'0 0.0
2020-Jun-28 13:17N 14°34' E 120°56'0 0.0
2020-Jun-28 11:56N 14°34' E 120°56'4 4.5
2020-Jun-28 11:00N 14°30' E 120°54'4 1.2 150 / 101010.1 5.4 26.524.431.0
2020-Jun-28 07:29N 14°34' E 120°56'0 0.0
2020-Jun-28 02:08N 14°34' E 120°56'0 0.0
2020-Jun-28 01:29N 14°34' E 120°56'0 0.0
2020-Jun-27 22:44N 14°34' E 120°56'0 0.0
2020-Jun-27 22:23N 14°34' E 120°56'0 0.0
2020-Jun-27 19:29N 14°34' E 120°56'0 0.0
2020-Jun-27 18:59N 14°34' E 120°56'0 0.0
2020-Jun-27 16:29N 14°34' E 120°56'0 0.0
2020-Jun-27 13:56N 14°34' E 120°56'4 1.4
2020-Jun-27 11:00N 14°30' E 120°54'4 2.8 090 / 111009.0 5.4 30.524.132.0
2020-Jun-27 09:29N 14°34' E 120°56'0 0.0
2020-Jun-27 07:56N 14°34' E 120°56'0 0.1
2020-Jun-27 07:26N 14°34' E 120°56'12 6.4
2020-Jun-27 05:31N 14°30' E 120°44'7811.9
2020-Jun-26 23:00N 14°00' E 119°30'87 7.2 110 / 221009.6 5.4 29.024.833.0
2020-Jun-26 11:00N 14°30' E 120°54'5 1.7 070 / 111009.1 5.4 31.025.432.0
2020-Jun-26 07:59N 14°33' E 120°50'4 9.2
2020-Jun-26 07:30N 14°34' E 120°54'2 3.3
2020-Jun-26 06:59N 14°34' E 120°56'0 0.0
2020-Jun-26 05:38N 14°34' E 120°56'0 0.0
2020-Jun-26 05:17N 14°34' E 120°56'0 0.0
2020-Jun-26 02:26N 14°34' E 120°56'4 1.2
2020-Jun-25 23:00N 14°30' E 120°54'4 1.4 020 / 51009.3 5.4 28.525.032.0
2020-Jun-25 19:59N 14°34' E 120°56'0 0.0
2020-Jun-25 18:35N 14°34' E 120°56'0 0.0
2020-Jun-25 17:56N 14°34' E 120°56'0 0.0
2020-Jun-25 16:11N 14°34' E 120°56'0 0.0
2020-Jun-25 14:17N 14°34' E 120°56'0 0.0
2020-Jun-25 11:50N 14°34' E 120°56'0 0.0
2020-Jun-25 11:26N 14°34' E 120°56'0 0.0
2020-Jun-25 09:26N 14°34' E 120°56'0 0.0
2020-Jun-25 08:26N 14°34' E 120°56'0 0.0
2020-Jun-25 04:59N 14°34' E 120°56'0 0.0
2020-Jun-25 03:59N 14°34' E 120°56'0 0.0
2020-Jun-25 02:59N 14°34' E 120°56'0 0.0
2020-Jun-25 01:59N 14°34' E 120°56'0 0.0
2020-Jun-25 01:29N 14°34' E 120°56'0 0.0
2020-Jun-24 23:38N 14°34' E 120°56'0 0.0
2020-Jun-24 20:59N 14°34' E 120°56'0 0.0
2020-Jun-24 18:26N 14°34' E 120°56'0 0.0
2020-Jun-24 15:29N 14°34' E 120°56'0 0.0
2020-Jun-24 13:59N 14°34' E 120°56'0 0.0
2020-Jun-24 11:50N 14°34' E 120°56'0 0.0
2020-Jun-24 11:20N 14°34' E 120°56'0 0.0
2020-Jun-24 09:53N 14°34' E 120°56'0 0.0
2020-Jun-24 06:59N 14°34' E 120°56'0 0.1
2020-Jun-24 05:59N 14°34' E 120°56'0 0.0
2020-Jun-24 03:59N 14°34' E 120°56'0 0.1
2020-Jun-24 02:59N 14°34' E 120°56'0 0.1
2020-Jun-24 02:29N 14°34' E 120°56'0 0.0
2020-Jun-24 00:47N 14°34' E 120°56'0 0.0
2020-Jun-23 21:59N 14°34' E 120°56'0 0.0
2020-Jun-23 21:02N 14°34' E 120°56'0 0.0
2020-Jun-23 18:17N 14°34' E 120°56'0 0.0
2020-Jun-23 17:29N 14°34' E 120°56'4 0.6
2020-Jun-23 11:00N 14°30' E 120°54'426.8 220 / 151008.8 5.4 30.026.732.0
2020-Jun-23 10:50N 14°34' E 120°56'0 0.2
2020-Jun-23 10:26N 14°34' E 120°56'0 0.0
2020-Jun-23 09:53N 14°34' E 120°56'0 0.1
2020-Jun-23 09:26N 14°34' E 120°56'0 0.0
2020-Jun-23 08:29N 14°34' E 120°56'0 0.0
2020-Jun-23 05:26N 14°34' E 120°56'0 0.0
2020-Jun-23 03:44N 14°34' E 120°56'0 0.0
2020-Jun-23 02:56N 14°34' E 120°56'1 0.6
2020-Jun-23 01:30N 14°33' E 120°55'  
Track history (hours):
 
Tides and Currents Weather Stations Pressure Air Temp Water Temp Dewpoint Dewpoint Depression Visibility Wind Speed Wind Dir Waves Ship Positions

Island Princess

Operator: Princess Cruises

Last reported at 2020-Jul-02 15:56 UTC. Time now 2020-Jul-02 16:30 UTC.
Position N 14°34' E 120°56'.

Type: Passenger vessel. MMSI: 310384000.

Date/timePositionNaut miles runAvg speedWind from/ knotsBaromVisibWave heightAir tempDewpointWater temp
2020-Jul-02 15:56N 14°34' E 120°56'0 0.0
2020-Jul-02 14:05N 14°34' E 120°56'0 0.0
2020-Jul-02 11:29N 14°34' E 120°56'0 0.0
2020-Jul-02 10:59N 14°34' E 120°56'0 0.0
2020-Jul-02 10:29N 14°34' E 120°56'0 0.0
2020-Jul-02 09:29N 14°34' E 120°56'0 0.0
2020-Jul-02 08:59N 14°34' E 120°56'0 0.0
2020-Jul-02 06:29N 14°34' E 120°56'0 0.0
2020-Jul-02 03:59N 14°34' E 120°56'0 0.0
2020-Jul-02 03:29N 14°34' E 120°56'0 0.0
2020-Jul-02 02:29N 14°34' E 120°56'0 0.0
2020-Jul-02 01:26N 14°34' E 120°56'0 0.0
2020-Jul-01 23:29N 14°34' E 120°56'0 0.0
2020-Jul-01 18:29N 14°34' E 120°56'0 0.0
2020-Jul-01 15:56N 14°34' E 120°56'0 0.0
2020-Jul-01 13:29N 14°34' E 120°56'0 0.0
2020-Jul-01 05:29N 14°34' E 120°56'0 0.0
2020-Jul-01 03:59N 14°34' E 120°56'0 0.0
2020-Jul-01 02:29N 14°34' E 120°56'0 0.0
2020-Jun-30 23:59N 14°34' E 120°56'4 4.3
2020-Jun-30 23:00N 14°30' E 120°54'4 2.8 140 / 101010.0 5.4 27.524.131.0
2020-Jun-30 21:29N 14°34' E 120°56'0 0.0
2020-Jun-30 18:29N 14°34' E 120°56'0 0.0
2020-Jun-30 17:59N 14°34' E 120°56'0 0.0
2020-Jun-30 17:26N 14°34' E 120°56'0 0.0
2020-Jun-30 16:29N 14°34' E 120°56'0 0.0
2020-Jun-30 15:29N 14°34' E 120°56'0 0.0
2020-Jun-30 14:29N 14°34' E 120°56'0 0.0
2020-Jun-30 13:29N 14°34' E 120°56'0 0.0
2020-Jun-30 11:53N 14°34' E 120°56'0 0.0
2020-Jun-30 07:26N 14°34' E 120°56'0 0.0
2020-Jun-30 06:29N 14°34' E 120°56'0 0.0
2020-Jun-30 03:29N 14°34' E 120°56'0 0.0
2020-Jun-30 02:26N 14°34' E 120°56'0 0.0
2020-Jun-30 00:29N 14°34' E 120°56'0 0.0
2020-Jun-29 22:56N 14°34' E 120°56'0 0.1
2020-Jun-29 22:05N 14°34' E 120°56'0 0.0
2020-Jun-29 16:29N 14°34' E 120°56'0 0.0
2020-Jun-29 15:59N 14°34' E 120°56'0 0.0
2020-Jun-29 13:56N 14°34' E 120°56'0 0.0
2020-Jun-29 13:29N 14°34' E 120°56'4 1.7
2020-Jun-29 11:00N 14°30' E 120°54'4 1.1 270 / 101008.9 5.4 29.024.931.0
2020-Jun-29 06:59N 14°34' E 120°56'0 0.0
2020-Jun-29 05:29N 14°34' E 120°56'0 0.0
2020-Jun-29 04:29N 14°34' E 120°56'0 0.0
2020-Jun-29 00:20N 14°34' E 120°56'0 0.0
2020-Jun-28 23:14N 14°34' E 120°56'0 0.0
2020-Jun-28 21:56N 14°34' E 120°56'0 0.0
2020-Jun-28 21:29N 14°34' E 120°56'0 0.0
2020-Jun-28 18:29N 14°34' E 120°56'0 0.0
2020-Jun-28 13:17N 14°34' E 120°56'0 0.0
2020-Jun-28 11:56N 14°34' E 120°56'4 4.5
2020-Jun-28 11:00N 14°30' E 120°54'4 1.2 150 / 101010.1 5.4 26.524.431.0
2020-Jun-28 07:29N 14°34' E 120°56'0 0.0
2020-Jun-28 02:08N 14°34' E 120°56'0 0.0
2020-Jun-28 01:29N 14°34' E 120°56'0 0.0
2020-Jun-27 22:44N 14°34' E 120°56'0 0.0
2020-Jun-27 22:23N 14°34' E 120°56'0 0.0
2020-Jun-27 19:29N 14°34' E 120°56'0 0.0
2020-Jun-27 18:59N 14°34' E 120°56'0 0.0
2020-Jun-27 16:29N 14°34' E 120°56'0 0.0
2020-Jun-27 13:56N 14°34' E 120°56'4 1.4
2020-Jun-27 11:00N 14°30' E 120°54'4 2.8 090 / 111009.0 5.4 30.524.132.0
2020-Jun-27 09:29N 14°34' E 120°56'0 0.0
2020-Jun-27 07:56N 14°34' E 120°56'0 0.1
2020-Jun-27 07:26N 14°34' E 120°56'12 6.4
2020-Jun-27 05:31N 14°30' E 120°44'7811.9
2020-Jun-26 23:00N 14°00' E 119°30'87 7.2 110 / 221009.6 5.4 29.024.833.0
2020-Jun-26 11:00N 14°30' E 120°54'5 1.7 070 / 111009.1 5.4 31.025.432.0
2020-Jun-26 07:59N 14°33' E 120°50'4 9.2
2020-Jun-26 07:30N 14°34' E 120°54'2 3.3
2020-Jun-26 06:59N 14°34' E 120°56'0 0.0
2020-Jun-26 05:38N 14°34' E 120°56'0 0.0
2020-Jun-26 05:17N 14°34' E 120°56'0 0.0
2020-Jun-26 02:26N 14°34' E 120°56'4 1.2
2020-Jun-25 23:00N 14°30' E 120°54'4 1.4 020 / 51009.3 5.4 28.525.032.0
2020-Jun-25 19:59N 14°34' E 120°56'0 0.0
2020-Jun-25 18:35N 14°34' E 120°56'0 0.0
2020-Jun-25 17:56N 14°34' E 120°56'0 0.0
2020-Jun-25 16:11N 14°34' E 120°56'0 0.0
2020-Jun-25 14:17N 14°34' E 120°56'0 0.0
2020-Jun-25 11:50N 14°34' E 120°56'0 0.0
2020-Jun-25 11:26N 14°34' E 120°56'0 0.0
2020-Jun-25 09:26N 14°34' E 120°56'0 0.0
2020-Jun-25 08:26N 14°34' E 120°56'0 0.0
2020-Jun-25 04:59N 14°34' E 120°56'0 0.0
2020-Jun-25 03:59N 14°34' E 120°56'0 0.0
2020-Jun-25 02:59N 14°34' E 120°56'0 0.0
2020-Jun-25 01:59N 14°34' E 120°56'0 0.0
2020-Jun-25 01:29N 14°34' E 120°56'0 0.0
2020-Jun-24 23:38N 14°34' E 120°56'0 0.0
2020-Jun-24 20:59N 14°34' E 120°56'0 0.0
2020-Jun-24 18:26N 14°34' E 120°56'0 0.0
2020-Jun-24 15:29N 14°34' E 120°56'0 0.0
2020-Jun-24 13:59N 14°34' E 120°56'0 0.0
2020-Jun-24 11:50N 14°34' E 120°56'0 0.0
2020-Jun-24 11:20N 14°34' E 120°56'0 0.0
2020-Jun-24 09:53N 14°34' E 120°56'0 0.0
2020-Jun-24 06:59N 14°34' E 120°56'0 0.1
2020-Jun-24 05:59N 14°34' E 120°56'0 0.0
2020-Jun-24 03:59N 14°34' E 120°56'0 0.1
2020-Jun-24 02:59N 14°34' E 120°56'0 0.1
2020-Jun-24 02:29N 14°34' E 120°56'0 0.0
2020-Jun-24 00:47N 14°34' E 120°56'0 0.0
2020-Jun-23 21:59N 14°34' E 120°56'0 0.0
2020-Jun-23 21:02N 14°34' E 120°56'0 0.0
2020-Jun-23 18:17N 14°34' E 120°56'0 0.0
2020-Jun-23 17:29N 14°34' E 120°56'4 0.6
2020-Jun-23 11:00N 14°30' E 120°54'426.8 220 / 151008.8 5.4 30.026.732.0
2020-Jun-23 10:50N 14°34' E 120°56'0 0.2
2020-Jun-23 10:26N 14°34' E 120°56'0 0.0
2020-Jun-23 09:53N 14°34' E 120°56'0 0.1
2020-Jun-23 09:26N 14°34' E 120°56'0 0.0
2020-Jun-23 08:29N 14°34' E 120°56'0 0.0
2020-Jun-23 05:26N 14°34' E 120°56'0 0.0
2020-Jun-23 03:44N 14°34' E 120°56'0 0.0
2020-Jun-23 02:56N 14°34' E 120°56'1 0.6
2020-Jun-23 01:30N 14°33' E 120°55'  

Dump ship's entire track history